sensor_id;sensor_type;location;lat;lon;timestamp;P1;durP1;ratioP1;P2;durP2;ratioP2
53519;SDS011;39397;53.204;5.778;2022-12-10T00:03:47;138.30;;;39.78;;
53519;SDS011;39397;53.204;5.778;2022-12-10T00:06:14;183.45;;;40.40;;
53519;SDS011;39397;53.204;5.778;2022-12-10T00:08:42;142.45;;;35.10;;
53519;SDS011;39397;53.204;5.778;2022-12-10T00:11:08;155.43;;;40.38;;
53519;SDS011;39397;53.204;5.778;2022-12-10T00:13:36;152.02;;;41.95;;
53519;SDS011;39397;53.204;5.778;2022-12-10T00:16:02;148.32;;;44.03;;
53519;SDS011;39397;53.204;5.778;2022-12-10T00:18:30;145.50;;;42.60;;
53519;SDS011;39397;53.204;5.778;2022-12-10T00:20:56;151.88;;;45.03;;
53519;SDS011;39397;53.204;5.778;2022-12-10T00:23:22;160.57;;;46.17;;
53519;SDS011;39397;53.204;5.778;2022-12-10T00:25:48;142.25;;;45.67;;
53519;SDS011;39397;53.204;5.778;2022-12-10T00:28:14;139.55;;;41.45;;
53519;SDS011;39397;53.204;5.778;2022-12-10T00:30:40;135.80;;;44.78;;
53519;SDS011;39397;53.204;5.778;2022-12-10T00:33:05;132.38;;;41.72;;
53519;SDS011;39397;53.204;5.778;2022-12-10T00:35:34;128.75;;;40.17;;
53519;SDS011;39397;53.204;5.778;2022-12-10T00:38:00;125.25;;;41.60;;
53519;SDS011;39397;53.204;5.778;2022-12-10T00:40:26;109.57;;;39.85;;
53519;SDS011;39397;53.204;5.778;2022-12-10T00:42:52;126.72;;;42.10;;
53519;SDS011;39397;53.204;5.778;2022-12-10T00:45:17;130.23;;;42.35;;
53519;SDS011;39397;53.204;5.778;2022-12-10T00:47:43;120.55;;;40.95;;
53519;SDS011;39397;53.204;5.778;2022-12-10T00:50:09;122.13;;;42.70;;
53519;SDS011;39397;53.204;5.778;2022-12-10T00:52:35;116.28;;;42.63;;
53519;SDS011;39397;53.204;5.778;2022-12-10T00:55:00;122.85;;;40.95;;
53519;SDS011;39397;53.204;5.778;2022-12-10T00:57:26;117.10;;;41.60;;
53519;SDS011;39397;53.204;5.778;2022-12-10T00:59:52;110.47;;;39.25;;
53519;SDS011;39397;53.204;5.778;2022-12-10T01:02:17;108.20;;;40.40;;
53519;SDS011;39397;53.204;5.778;2022-12-10T01:04:43;99.72;;;37.75;;
53519;SDS011;39397;53.204;5.778;2022-12-10T01:07:08;100.43;;;38.90;;
53519;SDS011;39397;53.204;5.778;2022-12-10T01:09:35;85.18;;;37.08;;
53519;SDS011;39397;53.204;5.778;2022-12-10T01:12:01;92.32;;;39.10;;
53519;SDS011;39397;53.204;5.778;2022-12-10T01:14:31;93.57;;;39.58;;
53519;SDS011;39397;53.204;5.778;2022-12-10T01:16:59;83.88;;;35.83;;
53519;SDS011;39397;53.204;5.778;2022-12-10T01:19:27;94.57;;;39.40;;
53519;SDS011;39397;53.204;5.778;2022-12-10T01:21:54;93.38;;;39.75;;
53519;SDS011;39397;53.204;5.778;2022-12-10T01:24:21;89.00;;;40.25;;
53519;SDS011;39397;53.204;5.778;2022-12-10T01:26:48;87.55;;;37.60;;
53519;SDS011;39397;53.204;5.778;2022-12-10T01:29:14;97.85;;;40.33;;
53519;SDS011;39397;53.204;5.778;2022-12-10T01:31:40;83.10;;;37.80;;
53519;SDS011;39397;53.204;5.778;2022-12-10T01:34:07;83.97;;;35.53;;
53519;SDS011;39397;53.204;5.778;2022-12-10T01:36:36;84.68;;;38.60;;
53519;SDS011;39397;53.204;5.778;2022-12-10T01:39:04;83.10;;;36.92;;
53519;SDS011;39397;53.204;5.778;2022-12-10T01:41:36;79.95;;;36.08;;
53519;SDS011;39397;53.204;5.778;2022-12-10T01:46:34;78.60;;;35.95;;
53519;SDS011;39397;53.204;5.778;2022-12-10T01:49:08;90.07;;;37.75;;
53519;SDS011;39397;53.204;5.778;2022-12-10T01:51:36;79.60;;;36.25;;
53519;SDS011;39397;53.204;5.778;2022-12-10T01:54:05;84.38;;;36.72;;
53519;SDS011;39397;53.204;5.778;2022-12-10T01:56:35;86.38;;;37.35;;
53519;SDS011;39397;53.204;5.778;2022-12-10T01:59:02;89.18;;;36.97;;
53519;SDS011;39397;53.204;5.778;2022-12-10T02:01:35;84.68;;;37.03;;
53519;SDS011;39397;53.204;5.778;2022-12-10T02:07:10;89.97;;;37.70;;
53519;SDS011;39397;53.204;5.778;2022-12-10T02:15:30;82.05;;;36.97;;
53519;SDS011;39397;53.204;5.778;2022-12-10T02:18:33;86.93;;;37.85;;
53519;SDS011;39397;53.204;5.778;2022-12-10T02:20:54;86.03;;;38.08;;
53519;SDS011;39397;53.204;5.778;2022-12-10T02:23:25;91.20;;;38.35;;
53519;SDS011;39397;53.204;5.778;2022-12-10T02:28:47;87.38;;;37.38;;
53519;SDS011;39397;53.204;5.778;2022-12-10T02:31:36;85.90;;;37.90;;
53519;SDS011;39397;53.204;5.778;2022-12-10T02:34:04;91.35;;;36.67;;
53519;SDS011;39397;53.204;5.778;2022-12-10T02:36:35;85.93;;;37.08;;
53519;SDS011;39397;53.204;5.778;2022-12-10T02:39:03;79.68;;;36.40;;
53519;SDS011;39397;53.204;5.778;2022-12-10T02:41:34;88.80;;;39.50;;
53519;SDS011;39397;53.204;5.778;2022-12-10T02:44:03;85.22;;;36.25;;
53519;SDS011;39397;53.204;5.778;2022-12-10T02:46:33;86.72;;;36.53;;
53519;SDS011;39397;53.204;5.778;2022-12-10T02:49:02;86.78;;;38.55;;
53519;SDS011;39397;53.204;5.778;2022-12-10T02:51:30;79.20;;;38.08;;
53519;SDS011;39397;53.204;5.778;2022-12-10T02:54:02;89.93;;;39.45;;
53519;SDS011;39397;53.204;5.778;2022-12-10T03:01:44;83.80;;;35.42;;
53519;SDS011;39397;53.204;5.778;2022-12-10T03:04:25;88.63;;;38.95;;
53519;SDS011;39397;53.204;5.778;2022-12-10T03:07:01;87.78;;;36.78;;
53519;SDS011;39397;53.204;5.778;2022-12-10T03:09:36;89.03;;;39.60;;
53519;SDS011;39397;53.204;5.778;2022-12-10T03:12:14;90.43;;;38.53;;
53519;SDS011;39397;53.204;5.778;2022-12-10T03:14:46;99.13;;;40.13;;
53519;SDS011;39397;53.204;5.778;2022-12-10T03:17:12;84.68;;;36.08;;
53519;SDS011;39397;53.204;5.778;2022-12-10T03:19:40;91.63;;;37.50;;
53519;SDS011;39397;53.204;5.778;2022-12-10T03:22:11;83.53;;;36.80;;
53519;SDS011;39397;53.204;5.778;2022-12-10T03:24:38;86.55;;;37.53;;
53519;SDS011;39397;53.204;5.778;2022-12-10T03:27:05;100.30;;;38.80;;
53519;SDS011;39397;53.204;5.778;2022-12-10T03:29:33;89.60;;;37.40;;
53519;SDS011;39397;53.204;5.778;2022-12-10T03:32:10;88.63;;;37.08;;
53519;SDS011;39397;53.204;5.778;2022-12-10T03:34:36;91.47;;;37.88;;
53519;SDS011;39397;53.204;5.778;2022-12-10T03:37:03;120.35;;;37.10;;
53519;SDS011;39397;53.204;5.778;2022-12-10T03:39:30;113.45;;;38.15;;
53519;SDS011;39397;53.204;5.778;2022-12-10T03:41:56;109.30;;;37.60;;
53519;SDS011;39397;53.204;5.778;2022-12-10T03:44:35;110.30;;;38.28;;
53519;SDS011;39397;53.204;5.778;2022-12-10T03:47:02;130.40;;;40.85;;
53519;SDS011;39397;53.204;5.778;2022-12-10T03:49:30;144.88;;;40.72;;
53519;SDS011;39397;53.204;5.778;2022-12-10T03:51:56;157.90;;;42.65;;
53519;SDS011;39397;53.204;5.778;2022-12-10T03:54:22;110.70;;;39.25;;
53519;SDS011;39397;53.204;5.778;2022-12-10T03:56:48;162.07;;;41.38;;
53519;SDS011;39397;53.204;5.778;2022-12-10T03:59:14;175.23;;;38.00;;
53519;SDS011;39397;53.204;5.778;2022-12-10T04:01:40;218.77;;;37.67;;
53519;SDS011;39397;53.204;5.778;2022-12-10T04:04:06;331.13;;;44.22;;
53519;SDS011;39397;53.204;5.778;2022-12-10T04:06:32;229.30;;;39.40;;
53519;SDS011;39397;53.204;5.778;2022-12-10T04:08:57;264.88;;;39.75;;
53519;SDS011;39397;53.204;5.778;2022-12-10T04:11:23;222.13;;;35.97;;
53519;SDS011;39397;53.204;5.778;2022-12-10T04:13:50;196.80;;;34.13;;
53519;SDS011;39397;53.204;5.778;2022-12-10T04:16:35;207.63;;;37.08;;
53519;SDS011;39397;53.204;5.778;2022-12-10T04:19:05;220.57;;;36.83;;
53519;SDS011;39397;53.204;5.778;2022-12-10T04:21:36;207.82;;;35.67;;
53519;SDS011;39397;53.204;5.778;2022-12-10T04:24:23;235.15;;;36.33;;
53519;SDS011;39397;53.204;5.778;2022-12-10T04:27:12;235.73;;;35.28;;
53519;SDS011;39397;53.204;5.778;2022-12-10T04:29:45;249.13;;;37.70;;
53519;SDS011;39397;53.204;5.778;2022-12-10T04:32:10;228.80;;;36.70;;
53519;SDS011;39397;53.204;5.778;2022-12-10T04:34:36;199.55;;;33.92;;
53519;SDS011;39397;53.204;5.778;2022-12-10T04:37:02;215.43;;;35.35;;
53519;SDS011;39397;53.204;5.778;2022-12-10T04:39:29;243.48;;;36.83;;
53519;SDS011;39397;53.204;5.778;2022-12-10T04:41:55;232.20;;;31.67;;
53519;SDS011;39397;53.204;5.778;2022-12-10T04:44:21;275.33;;;33.95;;
53519;SDS011;39397;53.204;5.778;2022-12-10T04:46:47;242.43;;;32.97;;
53519;SDS011;39397;53.204;5.778;2022-12-10T04:49:13;248.15;;;31.58;;
53519;SDS011;39397;53.204;5.778;2022-12-10T04:51:39;260.92;;;33.15;;
53519;SDS011;39397;53.204;5.778;2022-12-10T04:54:05;280.92;;;35.50;;
53519;SDS011;39397;53.204;5.778;2022-12-10T04:56:31;259.73;;;32.05;;
53519;SDS011;39397;53.204;5.778;2022-12-10T04:58:58;278.90;;;33.83;;
53519;SDS011;39397;53.204;5.778;2022-12-10T05:01:24;169.52;;;27.90;;
53519;SDS011;39397;53.204;5.778;2022-12-10T05:03:50;262.80;;;32.25;;
53519;SDS011;39397;53.204;5.778;2022-12-10T05:06:16;229.77;;;30.95;;
53519;SDS011;39397;53.204;5.778;2022-12-10T05:08:43;171.50;;;27.08;;
53519;SDS011;39397;53.204;5.778;2022-12-10T05:11:10;229.38;;;27.70;;
53519;SDS011;39397;53.204;5.778;2022-12-10T05:13:43;294.15;;;31.50;;
53519;SDS011;39397;53.204;5.778;2022-12-10T05:16:10;236.32;;;29.77;;
53519;SDS011;39397;53.204;5.778;2022-12-10T05:18:38;223.07;;;27.60;;
53519;SDS011;39397;53.204;5.778;2022-12-10T05:21:05;164.88;;;25.95;;
53519;SDS011;39397;53.204;5.778;2022-12-10T05:23:32;235.88;;;28.95;;
53519;SDS011;39397;53.204;5.778;2022-12-10T05:28:35;320.88;;;34.78;;
53519;SDS011;39397;53.204;5.778;2022-12-10T05:31:10;339.83;;;35.80;;
53519;SDS011;39397;53.204;5.778;2022-12-10T05:33:44;189.30;;;28.45;;
53519;SDS011;39397;53.204;5.778;2022-12-10T05:36:11;251.65;;;30.05;;
53519;SDS011;39397;53.204;5.778;2022-12-10T05:38:38;244.60;;;31.88;;
53519;SDS011;39397;53.204;5.778;2022-12-10T05:41:05;209.18;;;28.30;;
53519;SDS011;39397;53.204;5.778;2022-12-10T05:43:33;174.48;;;25.65;;
53519;SDS011;39397;53.204;5.778;2022-12-10T05:46:03;267.90;;;30.48;;
53519;SDS011;39397;53.204;5.778;2022-12-10T05:48:31;223.52;;;30.90;;
53519;SDS011;39397;53.204;5.778;2022-12-10T05:50:57;189.10;;;27.65;;
53519;SDS011;39397;53.204;5.778;2022-12-10T05:53:23;171.00;;;27.83;;
53519;SDS011;39397;53.204;5.778;2022-12-10T05:55:49;186.23;;;27.15;;
53519;SDS011;39397;53.204;5.778;2022-12-10T05:58:15;262.15;;;30.65;;
53519;SDS011;39397;53.204;5.778;2022-12-10T06:00:41;232.25;;;28.85;;
53519;SDS011;39397;53.204;5.778;2022-12-10T06:03:07;153.48;;;27.58;;
53519;SDS011;39397;53.204;5.778;2022-12-10T06:05:37;186.00;;;27.98;;
53519;SDS011;39397;53.204;5.778;2022-12-10T06:08:06;118.80;;;23.20;;
53519;SDS011;39397;53.204;5.778;2022-12-10T06:10:35;163.90;;;26.58;;
53519;SDS011;39397;53.204;5.778;2022-12-10T06:13:01;119.13;;;22.77;;
53519;SDS011;39397;53.204;5.778;2022-12-10T06:15:28;231.68;;;30.67;;
53519;SDS011;39397;53.204;5.778;2022-12-10T06:17:54;259.05;;;31.02;;
53519;SDS011;39397;53.204;5.778;2022-12-10T06:20:20;259.48;;;30.85;;
53519;SDS011;39397;53.204;5.778;2022-12-10T06:22:47;172.32;;;25.55;;
53519;SDS011;39397;53.204;5.778;2022-12-10T06:25:12;157.10;;;25.80;;
53519;SDS011;39397;53.204;5.778;2022-12-10T06:27:38;182.02;;;25.65;;
53519;SDS011;39397;53.204;5.778;2022-12-10T06:30:04;148.40;;;25.15;;
53519;SDS011;39397;53.204;5.778;2022-12-10T06:32:31;193.13;;;30.80;;
53519;SDS011;39397;53.204;5.778;2022-12-10T06:34:56;235.80;;;29.90;;
53519;SDS011;39397;53.204;5.778;2022-12-10T06:37:22;221.60;;;28.00;;
53519;SDS011;39397;53.204;5.778;2022-12-10T06:39:49;133.07;;;22.42;;
53519;SDS011;39397;53.204;5.778;2022-12-10T06:42:17;292.73;;;30.75;;
53519;SDS011;39397;53.204;5.778;2022-12-10T06:44:43;168.98;;;25.98;;
53519;SDS011;39397;53.204;5.778;2022-12-10T06:47:09;235.90;;;29.15;;
53519;SDS011;39397;53.204;5.778;2022-12-10T06:49:35;156.57;;;23.83;;
53519;SDS011;39397;53.204;5.778;2022-12-10T06:52:01;205.05;;;29.00;;
53519;SDS011;39397;53.204;5.778;2022-12-10T06:54:26;254.13;;;32.15;;
53519;SDS011;39397;53.204;5.778;2022-12-10T06:56:52;195.00;;;28.77;;
53519;SDS011;39397;53.204;5.778;2022-12-10T06:59:18;168.48;;;28.60;;
53519;SDS011;39397;53.204;5.778;2022-12-10T07:01:45;98.32;;;24.35;;
53519;SDS011;39397;53.204;5.778;2022-12-10T07:04:11;186.70;;;29.00;;
53519;SDS011;39397;53.204;5.778;2022-12-10T07:06:37;325.45;;;37.30;;
53519;SDS011;39397;53.204;5.778;2022-12-10T07:09:02;141.18;;;26.85;;
53519;SDS011;39397;53.204;5.778;2022-12-10T07:11:28;261.02;;;33.47;;
53519;SDS011;39397;53.204;5.778;2022-12-10T07:13:55;189.10;;;31.92;;
53519;SDS011;39397;53.204;5.778;2022-12-10T07:16:23;272.08;;;33.83;;
53519;SDS011;39397;53.204;5.778;2022-12-10T07:18:53;262.30;;;32.15;;
53519;SDS011;39397;53.204;5.778;2022-12-10T07:21:21;184.07;;;25.75;;
53519;SDS011;39397;53.204;5.778;2022-12-10T07:23:50;137.18;;;25.33;;
53519;SDS011;39397;53.204;5.778;2022-12-10T07:26:16;165.68;;;27.85;;
53519;SDS011;39397;53.204;5.778;2022-12-10T07:28:42;279.95;;;30.92;;
53519;SDS011;39397;53.204;5.778;2022-12-10T07:31:08;107.20;;;22.08;;
53519;SDS011;39397;53.204;5.778;2022-12-10T07:33:35;167.02;;;23.80;;
53519;SDS011;39397;53.204;5.778;2022-12-10T07:36:05;228.10;;;26.23;;
53519;SDS011;39397;53.204;5.778;2022-12-10T07:38:32;163.63;;;23.80;;
53519;SDS011;39397;53.204;5.778;2022-12-10T07:41:01;176.95;;;24.77;;
53519;SDS011;39397;53.204;5.778;2022-12-10T07:43:35;237.32;;;28.08;;
53519;SDS011;39397;53.204;5.778;2022-12-10T07:46:06;135.20;;;21.33;;
53519;SDS011;39397;53.204;5.778;2022-12-10T07:48:35;175.02;;;23.88;;
53519;SDS011;39397;53.204;5.778;2022-12-10T07:51:01;98.15;;;21.58;;
53519;SDS011;39397;53.204;5.778;2022-12-10T07:53:27;159.10;;;24.13;;
53519;SDS011;39397;53.204;5.778;2022-12-10T07:55:53;144.77;;;23.00;;
53519;SDS011;39397;53.204;5.778;2022-12-10T07:58:19;191.65;;;25.85;;
53519;SDS011;39397;53.204;5.778;2022-12-10T08:00:44;345.13;;;32.97;;
53519;SDS011;39397;53.204;5.778;2022-12-10T08:03:10;232.57;;;27.65;;
53519;SDS011;39397;53.204;5.778;2022-12-10T08:05:35;130.40;;;23.40;;
53519;SDS011;39397;53.204;5.778;2022-12-10T08:08:01;205.98;;;25.98;;
53519;SDS011;39397;53.204;5.778;2022-12-10T08:10:27;183.82;;;26.08;;
53519;SDS011;39397;53.204;5.778;2022-12-10T08:12:52;121.30;;;24.77;;
53519;SDS011;39397;53.204;5.778;2022-12-10T08:15:18;155.80;;;25.75;;
53519;SDS011;39397;53.204;5.778;2022-12-10T08:17:44;243.70;;;28.75;;
53519;SDS011;39397;53.204;5.778;2022-12-10T08:20:09;186.07;;;27.10;;
53519;SDS011;39397;53.204;5.778;2022-12-10T08:22:35;152.30;;;24.15;;
53519;SDS011;39397;53.204;5.778;2022-12-10T08:25:01;150.05;;;23.95;;
53519;SDS011;39397;53.204;5.778;2022-12-10T08:27:27;175.77;;;26.23;;
53519;SDS011;39397;53.204;5.778;2022-12-10T08:29:53;212.63;;;28.85;;
53519;SDS011;39397;53.204;5.778;2022-12-10T08:32:19;156.93;;;23.42;;
53519;SDS011;39397;53.204;5.778;2022-12-10T08:34:44;199.32;;;25.20;;
53519;SDS011;39397;53.204;5.778;2022-12-10T08:37:10;169.65;;;24.25;;
53519;SDS011;39397;53.204;5.778;2022-12-10T08:39:36;212.63;;;28.90;;
53519;SDS011;39397;53.204;5.778;2022-12-10T08:42:02;122.00;;;24.40;;
53519;SDS011;39397;53.204;5.778;2022-12-10T08:44:27;186.00;;;27.63;;
53519;SDS011;39397;53.204;5.778;2022-12-10T08:46:53;141.00;;;23.63;;
53519;SDS011;39397;53.204;5.778;2022-12-10T08:49:19;158.80;;;27.88;;
53519;SDS011;39397;53.204;5.778;2022-12-10T08:51:44;141.75;;;25.63;;
53519;SDS011;39397;53.204;5.778;2022-12-10T08:54:10;170.07;;;28.98;;
53519;SDS011;39397;53.204;5.778;2022-12-10T08:56:36;119.93;;;26.42;;
53519;SDS011;39397;53.204;5.778;2022-12-10T08:59:04;189.32;;;27.90;;
53519;SDS011;39397;53.204;5.778;2022-12-10T09:01:30;150.40;;;27.23;;
53519;SDS011;39397;53.204;5.778;2022-12-10T09:03:56;94.00;;;23.20;;
53519;SDS011;39397;53.204;5.778;2022-12-10T09:06:22;139.70;;;26.58;;
53519;SDS011;39397;53.204;5.778;2022-12-10T09:08:51;171.82;;;29.08;;
53519;SDS011;39397;53.204;5.778;2022-12-10T09:11:19;125.85;;;25.95;;
53519;SDS011;39397;53.204;5.778;2022-12-10T09:13:47;132.02;;;25.85;;
53519;SDS011;39397;53.204;5.778;2022-12-10T09:16:13;119.30;;;28.10;;
53519;SDS011;39397;53.204;5.778;2022-12-10T09:18:39;121.75;;;25.40;;
53519;SDS011;39397;53.204;5.778;2022-12-10T09:21:05;118.68;;;26.52;;
53519;SDS011;39397;53.204;5.778;2022-12-10T09:23:38;107.40;;;26.58;;
53519;SDS011;39397;53.204;5.778;2022-12-10T09:26:11;93.50;;;23.98;;
53519;SDS011;39397;53.204;5.778;2022-12-10T09:28:39;106.10;;;29.23;;
53519;SDS011;39397;53.204;5.778;2022-12-10T09:31:05;97.28;;;24.48;;
53519;SDS011;39397;53.204;5.778;2022-12-10T09:33:32;98.38;;;25.23;;
53519;SDS011;39397;53.204;5.778;2022-12-10T09:35:57;92.63;;;24.05;;
53519;SDS011;39397;53.204;5.778;2022-12-10T09:38:23;88.00;;;24.25;;
53519;SDS011;39397;53.204;5.778;2022-12-10T09:41:00;110.53;;;26.98;;
53519;SDS011;39397;53.204;5.778;2022-12-10T09:46:11;105.83;;;26.30;;
53519;SDS011;39397;53.204;5.778;2022-12-10T09:51:29;85.25;;;24.95;;
53519;SDS011;39397;53.204;5.778;2022-12-10T09:53:59;184.73;;;30.02;;
53519;SDS011;39397;53.204;5.778;2022-12-10T09:56:34;117.95;;;26.50;;
53519;SDS011;39397;53.204;5.778;2022-12-10T09:59:50;92.80;;;26.08;;
53519;SDS011;39397;53.204;5.778;2022-12-10T10:04:38;83.70;;;24.38;;
53519;SDS011;39397;53.204;5.778;2022-12-10T10:07:04;93.00;;;26.02;;
53519;SDS011;39397;53.204;5.778;2022-12-10T10:09:31;92.65;;;25.63;;
53519;SDS011;39397;53.204;5.778;2022-12-10T10:12:01;107.85;;;26.88;;
53519;SDS011;39397;53.204;5.778;2022-12-10T10:14:27;160.32;;;30.05;;
53519;SDS011;39397;53.204;5.778;2022-12-10T10:16:59;80.65;;;26.63;;
53519;SDS011;39397;53.204;5.778;2022-12-10T10:21:55;91.15;;;25.90;;
53519;SDS011;39397;53.204;5.778;2022-12-10T10:24:22;69.18;;;24.42;;
53519;SDS011;39397;53.204;5.778;2022-12-10T10:26:51;62.45;;;23.85;;
53519;SDS011;39397;53.204;5.778;2022-12-10T10:29:21;83.30;;;25.63;;
53519;SDS011;39397;53.204;5.778;2022-12-10T10:32:10;69.82;;;24.50;;
53519;SDS011;39397;53.204;5.778;2022-12-10T10:34:47;79.68;;;24.73;;
53519;SDS011;39397;53.204;5.778;2022-12-10T10:37:28;61.13;;;22.73;;
53519;SDS011;39397;53.204;5.778;2022-12-10T10:39:56;66.55;;;23.95;;
53519;SDS011;39397;53.204;5.778;2022-12-10T10:42:43;61.80;;;22.02;;
53519;SDS011;39397;53.204;5.778;2022-12-10T10:45:30;61.83;;;22.35;;
53519;SDS011;39397;53.204;5.778;2022-12-10T10:48:11;69.93;;;21.45;;
53519;SDS011;39397;53.204;5.778;2022-12-10T10:53:31;50.97;;;21.38;;
53519;SDS011;39397;53.204;5.778;2022-12-10T10:55:59;51.88;;;20.40;;
53519;SDS011;39397;53.204;5.778;2022-12-10T10:58:33;48.67;;;18.02;;
53519;SDS011;39397;53.204;5.778;2022-12-10T11:01:04;48.38;;;20.33;;
53519;SDS011;39397;53.204;5.778;2022-12-10T11:03:33;51.45;;;20.67;;
53519;SDS011;39397;53.204;5.778;2022-12-10T11:06:00;52.80;;;19.60;;
53519;SDS011;39397;53.204;5.778;2022-12-10T11:08:31;56.25;;;20.92;;
53519;SDS011;39397;53.204;5.778;2022-12-10T11:11:10;45.50;;;19.52;;
53519;SDS011;39397;53.204;5.778;2022-12-10T11:13:38;51.05;;;20.20;;
53519;SDS011;39397;53.204;5.778;2022-12-10T11:16:20;58.15;;;22.05;;
53519;SDS011;39397;53.204;5.778;2022-12-10T11:19:01;55.77;;;21.27;;
53519;SDS011;39397;53.204;5.778;2022-12-10T11:21:28;48.20;;;20.65;;
53519;SDS011;39397;53.204;5.778;2022-12-10T11:23:55;50.30;;;19.95;;
53519;SDS011;39397;53.204;5.778;2022-12-10T11:34:20;42.20;;;19.73;;
53519;SDS011;39397;53.204;5.778;2022-12-10T11:39:45;47.33;;;20.55;;
53519;SDS011;39397;53.204;5.778;2022-12-10T11:42:25;45.03;;;20.30;;
53519;SDS011;39397;53.204;5.778;2022-12-10T11:45:07;49.35;;;20.95;;
53519;SDS011;39397;53.204;5.778;2022-12-10T11:50:50;42.45;;;19.30;;
53519;SDS011;39397;53.204;5.778;2022-12-10T11:59:05;45.05;;;20.23;;
53519;SDS011;39397;53.204;5.778;2022-12-10T12:15:00;43.17;;;19.85;;
53519;SDS011;39397;53.204;5.778;2022-12-10T12:17:46;42.30;;;20.92;;
53519;SDS011;39397;53.204;5.778;2022-12-10T12:20:30;44.65;;;21.38;;
53519;SDS011;39397;53.204;5.778;2022-12-10T12:23:11;45.95;;;20.27;;
53519;SDS011;39397;53.204;5.778;2022-12-10T12:26:04;47.05;;;21.15;;
53519;SDS011;39397;53.204;5.778;2022-12-10T12:28:36;37.58;;;18.88;;
53519;SDS011;39397;53.204;5.778;2022-12-10T12:31:13;42.08;;;20.02;;
53519;SDS011;39397;53.204;5.778;2022-12-10T12:33:47;41.42;;;18.88;;
53519;SDS011;39397;53.204;5.778;2022-12-10T12:36:21;44.45;;;19.45;;
53519;SDS011;39397;53.204;5.778;2022-12-10T12:41:40;42.53;;;20.02;;
53519;SDS011;39397;53.204;5.778;2022-12-10T12:46:46;37.33;;;19.02;;
53519;SDS011;39397;53.204;5.778;2022-12-10T12:55:00;39.13;;;19.02;;
53519;SDS011;39397;53.204;5.778;2022-12-10T12:57:42;38.28;;;18.80;;
53519;SDS011;39397;53.204;5.778;2022-12-10T13:00:16;42.33;;;19.48;;
53519;SDS011;39397;53.204;5.778;2022-12-10T13:05:46;36.85;;;17.58;;
53519;SDS011;39397;53.204;5.778;2022-12-10T13:10:45;38.45;;;19.55;;
53519;SDS011;39397;53.204;5.778;2022-12-10T13:13:24;43.17;;;19.42;;
53519;SDS011;39397;53.204;5.778;2022-12-10T13:15:55;44.13;;;21.52;;
53519;SDS011;39397;53.204;5.778;2022-12-10T13:18:22;46.60;;;21.73;;
53519;SDS011;39397;53.204;5.778;2022-12-10T13:21:16;45.65;;;21.02;;
53519;SDS011;39397;53.204;5.778;2022-12-10T13:24:06;43.85;;;19.58;;
53519;SDS011;39397;53.204;5.778;2022-12-10T13:26:40;47.15;;;21.27;;
53519;SDS011;39397;53.204;5.778;2022-12-10T13:29:26;45.03;;;18.58;;
53519;SDS011;39397;53.204;5.778;2022-12-10T13:32:02;44.60;;;19.98;;
53519;SDS011;39397;53.204;5.778;2022-12-10T13:34:30;51.55;;;21.90;;
53519;SDS011;39397;53.204;5.778;2022-12-10T13:39:34;43.53;;;20.95;;
53519;SDS011;39397;53.204;5.778;2022-12-10T14:01:50;43.95;;;18.45;;
53519;SDS011;39397;53.204;5.778;2022-12-10T14:04:39;45.45;;;19.25;;
53519;SDS011;39397;53.204;5.778;2022-12-10T14:07:07;46.28;;;19.48;;
53519;SDS011;39397;53.204;5.778;2022-12-10T14:09:38;42.92;;;19.55;;
53519;SDS011;39397;53.204;5.778;2022-12-10T14:12:15;55.50;;;19.98;;
53519;SDS011;39397;53.204;5.778;2022-12-10T14:17:36;48.70;;;19.08;;
53519;SDS011;39397;53.204;5.778;2022-12-10T14:20:06;46.42;;;18.70;;
53519;SDS011;39397;53.204;5.778;2022-12-10T14:22:34;49.50;;;19.33;;
53519;SDS011;39397;53.204;5.778;2022-12-10T14:25:11;49.25;;;18.25;;
53519;SDS011;39397;53.204;5.778;2022-12-10T14:27:38;41.42;;;18.05;;
53519;SDS011;39397;53.204;5.778;2022-12-10T14:30:05;42.03;;;18.70;;
53519;SDS011;39397;53.204;5.778;2022-12-10T14:32:56;47.25;;;18.88;;
53519;SDS011;39397;53.204;5.778;2022-12-10T14:35:24;58.22;;;21.92;;
53519;SDS011;39397;53.204;5.778;2022-12-10T14:37:52;50.85;;;18.98;;
53519;SDS011;39397;53.204;5.778;2022-12-10T14:40:28;42.65;;;18.90;;
53519;SDS011;39397;53.204;5.778;2022-12-10T14:43:07;47.58;;;17.70;;
53519;SDS011;39397;53.204;5.778;2022-12-10T14:45:47;40.95;;;16.85;;
53519;SDS011;39397;53.204;5.778;2022-12-10T14:48:17;35.35;;;16.00;;
53519;SDS011;39397;53.204;5.778;2022-12-10T14:50:44;36.67;;;16.38;;
53519;SDS011;39397;53.204;5.778;2022-12-10T14:53:11;38.17;;;17.60;;
53519;SDS011;39397;53.204;5.778;2022-12-10T14:55:43;42.50;;;17.25;;
53519;SDS011;39397;53.204;5.778;2022-12-10T14:58:14;39.30;;;16.70;;
53519;SDS011;39397;53.204;5.778;2022-12-10T15:01:02;37.38;;;17.13;;
53519;SDS011;39397;53.204;5.778;2022-12-10T15:03:35;39.33;;;17.48;;
53519;SDS011;39397;53.204;5.778;2022-12-10T15:06:09;48.38;;;18.95;;
53519;SDS011;39397;53.204;5.778;2022-12-10T15:08:35;37.55;;;17.00;;
53519;SDS011;39397;53.204;5.778;2022-12-10T15:11:02;41.88;;;17.25;;
53519;SDS011;39397;53.204;5.778;2022-12-10T15:16:03;33.22;;;15.77;;
53519;SDS011;39397;53.204;5.778;2022-12-10T15:18:31;32.33;;;14.20;;
53519;SDS011;39397;53.204;5.778;2022-12-10T15:21:11;31.38;;;13.85;;
53519;SDS011;39397;53.204;5.778;2022-12-10T15:23:45;35.25;;;13.90;;
53519;SDS011;39397;53.204;5.778;2022-12-10T15:26:19;37.55;;;15.98;;
53519;SDS011;39397;53.204;5.778;2022-12-10T15:28:52;40.47;;;16.83;;
53519;SDS011;39397;53.204;5.778;2022-12-10T15:31:46;32.80;;;15.60;;
53519;SDS011;39397;53.204;5.778;2022-12-10T15:34:13;32.95;;;16.08;;
53519;SDS011;39397;53.204;5.778;2022-12-10T15:36:43;36.22;;;16.58;;
53519;SDS011;39397;53.204;5.778;2022-12-10T15:41:53;39.10;;;17.95;;
53519;SDS011;39397;53.204;5.778;2022-12-10T15:46:58;49.40;;;20.20;;
53519;SDS011;39397;53.204;5.778;2022-12-10T15:49:24;46.47;;;18.95;;
53519;SDS011;39397;53.204;5.778;2022-12-10T15:51:50;47.50;;;18.88;;
53519;SDS011;39397;53.204;5.778;2022-12-10T15:54:26;40.47;;;17.60;;
53519;SDS011;39397;53.204;5.778;2022-12-10T15:57:06;42.00;;;17.10;;
53519;SDS011;39397;53.204;5.778;2022-12-10T15:59:41;47.00;;;18.50;;
53519;SDS011;39397;53.204;5.778;2022-12-10T16:02:30;39.50;;;17.30;;
53519;SDS011;39397;53.204;5.778;2022-12-10T16:05:23;52.65;;;19.20;;
53519;SDS011;39397;53.204;5.778;2022-12-10T16:07:54;45.13;;;18.70;;
53519;SDS011;39397;53.204;5.778;2022-12-10T16:10:24;38.70;;;17.60;;
53519;SDS011;39397;53.204;5.778;2022-12-10T16:13:01;35.63;;;16.70;;
53519;SDS011;39397;53.204;5.778;2022-12-10T16:15:30;44.25;;;17.33;;
53519;SDS011;39397;53.204;5.778;2022-12-10T16:18:01;46.40;;;18.70;;
53519;SDS011;39397;53.204;5.778;2022-12-10T16:20:28;38.80;;;17.35;;
53519;SDS011;39397;53.204;5.778;2022-12-10T16:22:56;40.22;;;19.02;;
53519;SDS011;39397;53.204;5.778;2022-12-10T16:25:23;52.50;;;19.45;;
53519;SDS011;39397;53.204;5.778;2022-12-10T16:27:50;51.67;;;20.67;;
53519;SDS011;39397;53.204;5.778;2022-12-10T16:33:21;54.45;;;19.92;;
53519;SDS011;39397;53.204;5.778;2022-12-10T16:35:49;53.75;;;21.38;;